Time;durP1;ratioP1;P1;durP2;ratioP2;P2;SDS_P1;SDS_P2;PMS_P1;PMS_P2;Temp;Humidity;BMP_temperature;BMP_pressure;BME280_temperature;BME280_humidity;BME280_pressure;Samples;Min_cycle;Max_cycle;Signal;HPM_P1;HPM_P2
2021/12/29 00:02:08;;;;;;;26.63;19.45;;;;;;;;;;5070986;28;20070;-65
2021/12/29 00:04:34;;;;;;;24.88;20.02;;;;;;;;;;5088687;28;20028;-66
2021/12/29 00:06:59;;;;;;;26.58;21.95;;;;;;;;;;5073244;28;20028;-66
2021/12/29 00:09:25;;;;;;;25.63;20.15;;;;;;;;;;5074641;28;20028;-65
2021/12/29 00:11:51;;;;;;;24.15;19.65;;;;;;;;;;5074519;28;20127;-64
2021/12/29 00:14:17;;;;;;;24.40;21.20;;;;;;;;;;5074556;28;20031;-64
2021/12/29 00:16:43;;;;;;;25.45;20.30;;;;;;;;;;5092528;28;20048;-65
2021/12/29 00:19:08;;;;;;;23.88;19.52;;;;;;;;;;5074608;28;20039;-64
2021/12/29 00:21:35;;;;;;;23.17;18.50;;;;;;;;;;5092378;28;20028;-65
2021/12/29 00:24:01;;;;;;;24.33;17.50;;;;;;;;;;5074053;28;20036;-65
2021/12/29 00:26:27;;;;;;;21.30;17.38;;;;;;;;;;5092613;28;20031;-64
2021/12/29 00:28:53;;;;;;;21.27;17.27;;;;;;;;;;5074295;28;20036;-64
2021/12/29 00:31:19;;;;;;;23.45;17.77;;;;;;;;;;5074336;28;20383;-64
2021/12/29 00:34:03;;;;;;;21.70;16.50;;;;;;;;;;5092514;28;20051;-65
2021/12/29 00:36:47;;;;;;;22.65;16.10;;;;;;;;;;5092737;28;20066;-65
2021/12/29 00:39:31;;;;;;;21.00;15.30;;;;;;;;;;5092697;28;20051;-65
2021/12/29 00:42:15;;;;;;;22.08;14.98;;;;;;;;;;5091412;28;20051;-64
2021/12/29 00:44:58;;;;;;;20.88;15.85;;;;;;;;;;5092587;28;20158;-64
2021/12/29 00:47:24;;;;;;;19.75;14.90;;;;;;;;;;5092385;28;20036;-65
2021/12/29 00:49:50;;;;;;;22.20;15.50;;;;;;;;;;5092227;28;20039;-65
2021/12/29 00:52:15;;;;;;;23.77;14.75;;;;;;;;;;5092259;28;20036;-64
2021/12/29 00:54:42;;;;;;;20.13;14.25;;;;;;;;;;5092204;28;20458;-65
2021/12/29 00:57:07;;;;;;;19.35;13.50;;;;;;;;;;5091147;28;20036;-65
2021/12/29 00:59:32;;;;;;;16.73;13.40;;;;;;;;;;5073584;28;20391;-65
2021/12/29 01:01:58;;;;;;;17.48;12.98;;;;;;;;;;5092070;28;20036;-64
2021/12/29 01:04:23;;;;;;;17.92;13.52;;;;;;;;;;5092231;28;20467;-65
2021/12/29 01:06:49;;;;;;;16.73;12.43;;;;;;;;;;5094055;28;20043;-65
2021/12/29 01:09:14;;;;;;;16.88;12.05;;;;;;;;;;5094380;28;20119;-64
2021/12/29 01:11:40;;;;;;;16.92;11.68;;;;;;;;;;5095508;28;20084;-65
2021/12/29 01:14:07;;;;;;;13.48;10.57;;;;;;;;;;5095439;28;20074;-64
2021/12/29 01:19:09;;;;;;;12.98;10.15;;;;;;;;;;5095398;28;20433;-64
2021/12/29 01:21:35;;;;;;;15.50;9.43;;;;;;;;;;5094133;28;20077;-64
2021/12/29 01:24:03;;;;;;;15.27;7.75;;;;;;;;;;5077361;28;20040;-64
2021/12/29 01:26:28;;;;;;;10.73;6.88;;;;;;;;;;5095164;28;20035;-65
2021/12/29 01:28:53;;;;;;;10.85;6.80;;;;;;;;;;5095176;28;20032;-65
2021/12/29 01:31:19;;;;;;;10.27;6.15;;;;;;;;;;5095295;28;20039;-64
2021/12/29 01:33:44;;;;;;;10.23;6.28;;;;;;;;;;5095510;28;20051;-64
2021/12/29 01:36:10;;;;;;;11.20;6.43;;;;;;;;;;5077130;28;20023;-65
2021/12/29 01:38:35;;;;;;;8.80;5.85;;;;;;;;;;5077105;28;20119;-64
2021/12/29 01:41:01;;;;;;;10.85;5.45;;;;;;;;;;5094995;28;20113;-65
2021/12/29 01:43:26;;;;;;;11.02;5.95;;;;;;;;;;5076899;28;20078;-64
2021/12/29 01:45:52;;;;;;;11.75;5.88;;;;;;;;;;5094928;28;20026;-64
2021/12/29 01:48:17;;;;;;;16.05;6.35;;;;;;;;;;5094976;28;20036;-64
2021/12/29 01:50:48;;;;;;;12.30;6.25;;;;;;;;;;5095209;28;20058;-64
2021/12/29 01:53:22;;;;;;;13.02;6.53;;;;;;;;;;5060175;28;20074;-64
2021/12/29 01:55:48;;;;;;;13.38;7.22;;;;;;;;;;5095009;28;20161;-64
2021/12/29 01:58:13;;;;;;;13.45;7.22;;;;;;;;;;5076611;28;20032;-64
2021/12/29 02:00:39;;;;;;;13.27;6.80;;;;;;;;;;5094835;28;20024;-64
2021/12/29 02:03:07;;;;;;;11.45;7.15;;;;;;;;;;5076520;28;20071;-64
2021/12/29 02:05:33;;;;;;;10.20;7.10;;;;;;;;;;5076686;28;20031;-64
2021/12/29 02:07:58;;;;;;;15.23;7.68;;;;;;;;;;5076518;28;20089;-66
2021/12/29 02:10:25;;;;;;;21.02;7.65;;;;;;;;;;5094419;28;20020;-67
2021/12/29 02:12:52;;;;;;;12.65;6.70;;;;;;;;;;5094541;28;20028;-66
2021/12/29 02:15:19;;;;;;;12.85;7.22;;;;;;;;;;5076472;28;20027;-66
2021/12/29 02:17:44;;;;;;;11.25;6.50;;;;;;;;;;5092274;28;20035;-65
2021/12/29 02:20:11;;;;;;;13.38;6.70;;;;;;;;;;5094566;28;20028;-65
2021/12/29 02:22:46;;;;;;;16.23;7.47;;;;;;;;;;5076098;28;20096;-65
2021/12/29 02:27:43;;;;;;;9.52;6.55;;;;;;;;;;5076324;28;20089;-65
2021/12/29 02:30:08;;;;;;;14.65;6.88;;;;;;;;;;5094432;28;20125;-65
2021/12/29 02:32:34;;;;;;;17.45;7.20;;;;;;;;;;5094348;28;20032;-65
2021/12/29 02:34:59;;;;;;;12.93;6.95;;;;;;;;;;5094368;28;20028;-65
2021/12/29 02:37:25;;;;;;;13.52;6.70;;;;;;;;;;5094236;28;20043;-65
2021/12/29 02:39:52;;;;;;;15.80;7.50;;;;;;;;;;5093906;28;20038;-64
2021/12/29 02:42:19;;;;;;;15.45;7.32;;;;;;;;;;5076233;28;20379;-64
2021/12/29 02:44:46;;;;;;;11.65;6.30;;;;;;;;;;5094121;28;20028;-65
2021/12/29 02:47:11;;;;;;;11.02;6.78;;;;;;;;;;5075857;28;20036;-65
2021/12/29 02:49:37;;;;;;;12.65;7.03;;;;;;;;;;5093980;28;20038;-65
2021/12/29 02:52:03;;;;;;;15.63;7.20;;;;;;;;;;5093835;28;20066;-65
2021/12/29 02:54:28;;;;;;;11.98;6.95;;;;;;;;;;5093581;28;20035;-65
2021/12/29 02:56:56;;;;;;;14.57;6.97;;;;;;;;;;5093773;28;20039;-65
2021/12/29 02:59:23;;;;;;;14.75;7.63;;;;;;;;;;5075627;28;20047;-66
2021/12/29 03:01:49;;;;;;;12.05;6.85;;;;;;;;;;5058966;28;20042;-64
2021/12/29 03:04:14;;;;;;;11.13;7.28;;;;;;;;;;5093805;28;20067;-64
2021/12/29 03:06:40;;;;;;;12.85;7.97;;;;;;;;;;5093672;28;20059;-65
2021/12/29 03:09:06;;;;;;;15.70;7.00;;;;;;;;;;5093722;28;20039;-65
2021/12/29 03:11:32;;;;;;;14.13;7.00;;;;;;;;;;5075645;28;20501;-65
2021/12/29 03:13:58;;;;;;;16.45;8.02;;;;;;;;;;5093517;28;20063;-64
2021/12/29 03:16:24;;;;;;;11.48;7.75;;;;;;;;;;5093535;28;20039;-64
2021/12/29 03:18:50;;;;;;;13.93;7.55;;;;;;;;;;5093518;28;20036;-65
2021/12/29 03:21:15;;;;;;;15.43;7.93;;;;;;;;;;5093380;28;20032;-64
2021/12/29 03:23:41;;;;;;;12.60;7.93;;;;;;;;;;5075270;28;20046;-64
2021/12/29 03:26:09;;;;;;;15.20;9.23;;;;;;;;;;5075245;28;20052;-64
2021/12/29 03:28:36;;;;;;;13.65;8.60;;;;;;;;;;5075054;28;20040;-65
2021/12/29 03:31:01;;;;;;;17.83;9.10;;;;;;;;;;5093350;28;20028;-65
2021/12/29 03:33:31;;;;;;;14.30;8.25;;;;;;;;;;5075187;28;20093;-65
2021/12/29 03:36:00;;;;;;;17.40;9.23;;;;;;;;;;5075176;28;20062;-65
2021/12/29 03:38:27;;;;;;;16.98;9.13;;;;;;;;;;5075001;28;20032;-65
2021/12/29 03:40:53;;;;;;;19.23;9.05;;;;;;;;;;5058191;28;20066;-65
2021/12/29 03:43:19;;;;;;;11.73;7.70;;;;;;;;;;5075154;28;20451;-65
2021/12/29 03:45:46;;;;;;;11.30;7.57;;;;;;;;;;5075196;28;20106;-65
2021/12/29 03:48:13;;;;;;;18.63;8.32;;;;;;;;;;5093020;28;20529;-65
2021/12/29 03:50:39;;;;;;;12.90;7.70;;;;;;;;;;5074850;28;20119;-66
2021/12/29 03:53:05;;;;;;;14.13;8.13;;;;;;;;;;5074905;28;20055;-65
2021/12/29 03:55:31;;;;;;;14.88;7.53;;;;;;;;;;5075048;28;20042;-65
2021/12/29 03:57:56;;;;;;;11.90;8.57;;;;;;;;;;5074837;28;20024;-64
2021/12/29 04:00:22;;;;;;;14.52;8.07;;;;;;;;;;5092892;28;20130;-65
2021/12/29 04:02:48;;;;;;;13.70;7.90;;;;;;;;;;5082989;28;20071;-66
2021/12/29 04:05:15;;;;;;;12.82;8.10;;;;;;;;;;5050830;28;20032;-68
2021/12/29 04:07:41;;;;;;;14.88;8.57;;;;;;;;;;5068668;28;20138;-65
2021/12/29 04:10:07;;;;;;;11.23;8.05;;;;;;;;;;5068774;28;20132;-64
2021/12/29 04:12:33;;;;;;;13.15;7.88;;;;;;;;;;5050383;28;20033;-65
2021/12/29 04:14:59;;;;;;;12.82;7.57;;;;;;;;;;5068754;28;20047;-65
2021/12/29 04:17:29;;;;;;;15.30;8.23;;;;;;;;;;5068498;28;20392;-65
2021/12/29 04:22:39;;;;;;;17.23;7.70;;;;;;;;;;5068433;28;20080;-65
2021/12/29 04:25:05;;;;;;;15.25;6.95;;;;;;;;;;5068595;28;20412;-65
2021/12/29 04:27:30;;;;;;;14.20;7.28;;;;;;;;;;5033902;28;20036;-65
2021/12/29 04:29:56;;;;;;;17.35;6.90;;;;;;;;;;5068194;28;20032;-65
2021/12/29 04:32:21;;;;;;;13.77;6.55;;;;;;;;;;5068466;28;20045;-66
2021/12/29 04:34:47;;;;;;;15.82;7.78;;;;;;;;;;5052629;28;20360;-66
2021/12/29 04:37:12;;;;;;;14.23;7.57;;;;;;;;;;5070258;28;20028;-65
2021/12/29 04:39:38;;;;;;;12.90;6.82;;;;;;;;;;5087200;28;20088;-64
2021/12/29 04:42:03;;;;;;;13.90;6.93;;;;;;;;;;5090646;28;20062;-64
2021/12/29 04:44:29;;;;;;;15.63;6.68;;;;;;;;;;5092138;28;20032;-65
2021/12/29 04:46:55;;;;;;;16.77;6.35;;;;;;;;;;5073728;28;20085;-64
2021/12/29 04:49:26;;;;;;;16.52;7.28;;;;;;;;;;5073663;28;20032;-65
2021/12/29 04:52:10;;;;;;;17.55;6.90;;;;;;;;;;5074129;28;20047;-65
2021/12/29 04:54:37;;;;;;;14.50;5.88;;;;;;;;;;5091685;28;20487;-65
2021/12/29 04:57:03;;;;;;;15.85;6.22;;;;;;;;;;5073772;28;20039;-65
2021/12/29 04:59:29;;;;;;;19.10;6.70;;;;;;;;;;5091915;28;20062;-64
2021/12/29 05:01:54;;;;;;;20.60;7.05;;;;;;;;;;5073381;28;20031;-65
2021/12/29 05:04:23;;;;;;;16.60;6.82;;;;;;;;;;5090536;28;20038;-64
2021/12/29 05:09:33;;;;;;;21.00;7.85;;;;;;;;;;5091972;28;20066;-65
2021/12/29 05:12:00;;;;;;;17.50;6.97;;;;;;;;;;5091865;28;20063;-64
2021/12/29 05:14:25;;;;;;;11.82;6.30;;;;;;;;;;5091477;28;20110;-65
2021/12/29 05:16:51;;;;;;;13.50;7.43;;;;;;;;;;5091439;28;20115;-66
2021/12/29 05:19:16;;;;;;;14.25;6.60;;;;;;;;;;5091849;28;20051;-65
2021/12/29 05:21:42;;;;;;;14.15;6.10;;;;;;;;;;5091305;28;20032;-66
2021/12/29 05:24:07;;;;;;;11.82;5.95;;;;;;;;;;5091300;28;20031;-65
2021/12/29 05:26:33;;;;;;;13.85;6.20;;;;;;;;;;5056214;28;20157;-65
2021/12/29 05:28:58;;;;;;;18.48;6.22;;;;;;;;;;5073060;28;20043;-65
2021/12/29 05:31:25;;;;;;;18.13;6.05;;;;;;;;;;5073175;28;20035;-65
2021/12/29 05:33:50;;;;;;;18.48;8.27;;;;;;;;;;5056488;28;20032;-66
2021/12/29 05:36:16;;;;;;;15.15;6.55;;;;;;;;;;5091171;28;20077;-65
2021/12/29 05:38:41;;;;;;;13.07;6.47;;;;;;;;;;5089451;28;20081;-66
2021/12/29 05:41:07;;;;;;;24.02;10.18;;;;;;;;;;5091563;28;20061;-65
2021/12/29 05:43:32;;;;;;;17.33;7.65;;;;;;;;;;5091046;28;20059;-67
2021/12/29 05:45:58;;;;;;;13.95;7.13;;;;;;;;;;5073049;28;20028;-66
2021/12/29 05:48:23;;;;;;;12.98;6.85;;;;;;;;;;5091293;28;20031;-65
2021/12/29 05:50:49;;;;;;;12.77;5.78;;;;;;;;;;5090875;28;20035;-67
2021/12/29 05:53:14;;;;;;;15.00;5.53;;;;;;;;;;5091014;28;20111;-65
2021/12/29 05:55:41;;;;;;;11.77;5.15;;;;;;;;;;5090885;28;20024;-66
2021/12/29 05:58:08;;;;;;;16.52;5.38;;;;;;;;;;5072589;28;20127;-65
2021/12/29 06:00:33;;;;;;;9.80;4.80;;;;;;;;;;5072679;28;20107;-65
2021/12/29 06:02:59;;;;;;;14.25;5.80;;;;;;;;;;5090873;28;20127;-65
2021/12/29 06:05:24;;;;;;;14.27;4.47;;;;;;;;;;5090772;28;20032;-65
2021/12/29 06:07:50;;;;;;;11.60;5.00;;;;;;;;;;5090841;28;20489;-65
2021/12/29 06:10:16;;;;;;;15.65;5.70;;;;;;;;;;5091048;28;20148;-65
2021/12/29 06:12:41;;;;;;;15.80;4.72;;;;;;;;;;5090542;28;20032;-66
2021/12/29 06:15:07;;;;;;;18.48;6.78;;;;;;;;;;5072264;28;20433;-65
2021/12/29 06:17:33;;;;;;;18.30;5.93;;;;;;;;;;5089037;28;20117;-65
2021/12/29 06:19:59;;;;;;;17.38;7.25;;;;;;;;;;5090872;28;20063;-66
2021/12/29 06:22:25;;;;;;;16.70;6.28;;;;;;;;;;5090463;28;20398;-65
2021/12/29 06:24:52;;;;;;;14.35;5.75;;;;;;;;;;5072111;28;20047;-64
2021/12/29 06:27:21;;;;;;;12.75;4.90;;;;;;;;;;5090600;28;20032;-67
2021/12/29 06:29:47;;;;;;;13.02;5.38;;;;;;;;;;5089118;28;20565;-64
2021/12/29 06:32:13;;;;;;;16.80;5.82;;;;;;;;;;5090390;28;20043;-68
2021/12/29 06:34:38;;;;;;;11.45;5.03;;;;;;;;;;5090487;28;20034;-64
2021/12/29 06:37:08;;;;;;;18.70;5.40;;;;;;;;;;5090099;28;20379;-65
2021/12/29 06:39:35;;;;;;;14.68;6.45;;;;;;;;;;5090308;28;20036;-65
2021/12/29 06:42:00;;;;;;;14.48;6.05;;;;;;;;;;5072088;28;20043;-67
2021/12/29 06:44:26;;;;;;;14.65;5.07;;;;;;;;;;5090231;28;20040;-65
2021/12/29 06:46:51;;;;;;;20.85;5.00;;;;;;;;;;5089879;28;20123;-65
2021/12/29 06:49:16;;;;;;;16.98;5.68;;;;;;;;;;5090309;28;20450;-65
2021/12/29 06:51:42;;;;;;;18.23;5.18;;;;;;;;;;5089936;28;20028;-65
2021/12/29 06:54:08;;;;;;;20.70;6.45;;;;;;;;;;5072282;28;20111;-66
2021/12/29 06:56:34;;;;;;;17.80;5.60;;;;;;;;;;5089926;28;20538;-65
2021/12/29 06:58:59;;;;;;;11.75;5.97;;;;;;;;;;5089896;28;20104;-66
2021/12/29 07:01:24;;;;;;;15.98;5.60;;;;;;;;;;5089595;28;20051;-65
2021/12/29 07:03:50;;;;;;;15.77;5.97;;;;;;;;;;5089280;28;20040;-65
2021/12/29 07:06:15;;;;;;;16.45;5.68;;;;;;;;;;5090186;28;20036;-65
2021/12/29 07:08:41;;;;;;;11.43;6.13;;;;;;;;;;5087964;28;20531;-66
2021/12/29 07:11:06;;;;;;;20.60;5.30;;;;;;;;;;5089910;28;20474;-66
2021/12/29 07:13:32;;;;;;;18.17;5.43;;;;;;;;;;5089483;28;20031;-66
2021/12/29 07:15:57;;;;;;;16.05;4.78;;;;;;;;;;5089860;28;20020;-65
2021/12/29 07:18:23;;;;;;;14.95;5.28;;;;;;;;;;5089967;28;20495;-66
2021/12/29 07:20:48;;;;;;;15.05;5.38;;;;;;;;;;5089566;28;20028;-66
2021/12/29 07:23:13;;;;;;;16.70;5.30;;;;;;;;;;5089483;28;20062;-66
2021/12/29 07:25:39;;;;;;;16.10;5.28;;;;;;;;;;5071602;28;20035;-65
2021/12/29 07:28:04;;;;;;;19.98;5.40;;;;;;;;;;5089533;28;20028;-65
2021/12/29 07:30:30;;;;;;;11.93;5.22;;;;;;;;;;5089472;28;20036;-65
2021/12/29 07:32:55;;;;;;;12.40;5.00;;;;;;;;;;5089217;28;20032;-65
2021/12/29 07:35:20;;;;;;;20.80;5.38;;;;;;;;;;5089292;28;20127;-65
2021/12/29 07:37:46;;;;;;;13.57;5.20;;;;;;;;;;5089519;28;20826;-66
2021/12/29 07:40:11;;;;;;;22.42;6.47;;;;;;;;;;5089575;28;20864;-65
2021/12/29 07:42:38;;;;;;;14.38;6.07;;;;;;;;;;5089165;28;20039;-66
2021/12/29 07:45:07;;;;;;;15.95;6.32;;;;;;;;;;5088910;28;20435;-66
2021/12/29 07:47:32;;;;;;;16.30;7.07;;;;;;;;;;5089154;28;20024;-64
2021/12/29 07:49:58;;;;;;;16.67;6.03;;;;;;;;;;5088605;28;20042;-65
2021/12/29 07:52:23;;;;;;;14.40;5.22;;;;;;;;;;5088892;28;20028;-65
2021/12/29 07:54:48;;;;;;;16.73;5.43;;;;;;;;;;5088709;28;20024;-65
2021/12/29 07:57:14;;;;;;;17.63;5.18;;;;;;;;;;5088195;28;20043;-65
2021/12/29 07:59:39;;;;;;;15.63;4.35;;;;;;;;;;5086395;28;20032;-66
2021/12/29 08:02:05;;;;;;;14.90;5.32;;;;;;;;;;5087023;28;20028;-65
2021/12/29 08:04:30;;;;;;;14.70;5.32;;;;;;;;;;5069125;28;20051;-64
2021/12/29 08:06:55;;;;;;;18.13;5.63;;;;;;;;;;5086529;28;20031;-65
2021/12/29 08:09:21;;;;;;;16.67;5.05;;;;;;;;;;5087008;28;20047;-66
2021/12/29 08:11:46;;;;;;;19.77;5.05;;;;;;;;;;5086838;28;20024;-65
2021/12/29 08:14:12;;;;;;;17.13;4.55;;;;;;;;;;5088535;28;20028;-67
2021/12/29 08:16:37;;;;;;;22.95;5.15;;;;;;;;;;5070094;28;20035;-65
2021/12/29 08:19:03;;;;;;;21.02;5.05;;;;;;;;;;5088928;28;20115;-66
2021/12/29 08:21:29;;;;;;;20.67;5.40;;;;;;;;;;5088691;28;20036;-65
2021/12/29 08:23:54;;;;;;;18.77;4.05;;;;;;;;;;5071552;28;20488;-67
2021/12/29 08:26:20;;;;;;;12.65;4.10;;;;;;;;;;5068822;28;20033;-65
2021/12/29 08:28:46;;;;;;;11.98;2.97;;;;;;;;;;5067498;28;20447;-65
2021/12/29 08:31:11;;;;;;;18.35;3.80;;;;;;;;;;5068884;28;20037;-65
2021/12/29 08:33:38;;;;;;;11.60;2.97;;;;;;;;;;5068695;28;20383;-65
2021/12/29 08:36:05;;;;;;;16.85;3.88;;;;;;;;;;5068180;28;20044;-65
2021/12/29 08:38:31;;;;;;;13.32;3.78;;;;;;;;;;5068400;28;20037;-66
2021/12/29 08:40:56;;;;;;;15.02;4.05;;;;;;;;;;5084689;28;20043;-66
2021/12/29 08:43:22;;;;;;;15.90;3.88;;;;;;;;;;5088152;28;20194;-67
2021/12/29 08:45:47;;;;;;;13.13;3.72;;;;;;;;;;5088508;28;20505;-67
2021/12/29 08:48:13;;;;;;;15.10;3.47;;;;;;;;;;5088423;28;20483;-67
2021/12/29 08:50:38;;;;;;;17.38;4.68;;;;;;;;;;5082713;28;20055;-66
2021/12/29 08:53:05;;;;;;;15.63;3.47;;;;;;;;;;5086190;28;20463;-66
2021/12/29 08:55:31;;;;;;;16.63;4.15;;;;;;;;;;5087359;28;20032;-66
2021/12/29 08:57:56;;;;;;;10.38;3.22;;;;;;;;;;5088140;28;20028;-67
2021/12/29 09:00:22;;;;;;;13.82;2.72;;;;;;;;;;5088068;28;20074;-67
2021/12/29 09:02:48;;;;;;;9.60;2.78;;;;;;;;;;5086737;28;20040;-66
2021/12/29 09:05:16;;;;;;;10.13;3.22;;;;;;;;;;5063228;28;20085;-67
2021/12/29 09:07:41;;;;;;;8.35;2.42;;;;;;;;;;5067900;28;20076;-67
2021/12/29 09:10:07;;;;;;;12.23;2.47;;;;;;;;;;5086147;28;20492;-68
2021/12/29 09:12:34;;;;;;;9.85;2.30;;;;;;;;;;5051058;28;20032;-67
2021/12/29 09:15:01;;;;;;;10.75;2.47;;;;;;;;;;5067480;28;20648;-68
2021/12/29 09:17:27;;;;;;;7.93;2.78;;;;;;;;;;5068024;28;20032;-68
2021/12/29 09:19:52;;;;;;;13.90;3.28;;;;;;;;;;5086096;28;20123;-67
2021/12/29 09:22:18;;;;;;;9.82;3.80;;;;;;;;;;5067962;28;20178;-67
2021/12/29 09:24:45;;;;;;;10.05;4.15;;;;;;;;;;5087448;28;20043;-68
2021/12/29 09:27:11;;;;;;;11.50;4.40;;;;;;;;;;5051820;28;20047;-68
2021/12/29 09:29:36;;;;;;;13.60;4.07;;;;;;;;;;5089089;28;20032;-68
2021/12/29 09:32:04;;;;;;;13.60;4.55;;;;;;;;;;5089407;28;20036;-68
2021/12/29 09:34:29;;;;;;;13.13;3.95;;;;;;;;;;5053800;28;20115;-67
2021/12/29 09:36:55;;;;;;;11.63;3.50;;;;;;;;;;5068594;28;20158;-67
2021/12/29 09:39:20;;;;;;;10.82;3.58;;;;;;;;;;5068967;28;20401;-67
2021/12/29 09:41:46;;;;;;;11.18;3.10;;;;;;;;;;5070776;28;20029;-67
2021/12/29 09:44:11;;;;;;;10.85;2.17;;;;;;;;;;5070826;28;20483;-66
2021/12/29 09:46:38;;;;;;;9.85;3.13;;;;;;;;;;5036003;28;20440;-67
2021/12/29 09:49:03;;;;;;;10.60;3.53;;;;;;;;;;5087974;28;20028;-67
2021/12/29 09:51:29;;;;;;;9.38;2.38;;;;;;;;;;5090188;28;20111;-67
2021/12/29 09:53:54;;;;;;;10.15;2.65;;;;;;;;;;5090308;28;20032;-67
2021/12/29 09:56:20;;;;;;;10.15;2.30;;;;;;;;;;5090272;28;20081;-68
2021/12/29 09:58:45;;;;;;;9.13;2.20;;;;;;;;;;5089628;28;20070;-67
2021/12/29 10:01:11;;;;;;;8.75;2.35;;;;;;;;;;5068702;28;20467;-67
2021/12/29 10:03:37;;;;;;;11.45;2.55;;;;;;;;;;5067231;28;20056;-67
2021/12/29 10:06:04;;;;;;;12.35;2.40;;;;;;;;;;5089544;28;20038;-66
2021/12/29 10:08:31;;;;;;;8.45;2.22;;;;;;;;;;5066684;28;20110;-67
2021/12/29 10:11:05;;;;;;;8.30;1.85;;;;;;;;;;5055418;28;20493;-66
2021/12/29 10:13:32;;;;;;;8.27;1.63;;;;;;;;;;5061027;28;20024;-66
2021/12/29 10:16:09;;;;;;;8.15;1.40;;;;;;;;;;5071966;28;20047;-66
2021/12/29 10:18:37;;;;;;;8.68;1.95;;;;;;;;;;5052773;28;20081;-67
2021/12/29 10:21:10;;;;;;;8.38;2.03;;;;;;;;;;5060853;28;20039;-66
2021/12/29 10:23:36;;;;;;;11.35;2.05;;;;;;;;;;5066936;28;20544;-67
2021/12/29 10:26:05;;;;;;;6.57;1.60;;;;;;;;;;5051676;28;20070;-67
2021/12/29 10:28:31;;;;;;;4.95;1.83;;;;;;;;;;5068856;28;20024;-66
2021/12/29 10:31:00;;;;;;;8.07;2.03;;;;;;;;;;5072567;28;20476;-66
2021/12/29 10:33:29;;;;;;;8.07;2.33;;;;;;;;;;5088932;28;20035;-66
2021/12/29 10:35:55;;;;;;;6.68;2.33;;;;;;;;;;5052058;28;20377;-67
2021/12/29 10:38:22;;;;;;;4.68;1.65;;;;;;;;;;5088004;28;20027;-67
2021/12/29 10:40:48;;;;;;;8.20;2.22;;;;;;;;;;5051250;28;20119;-68
2021/12/29 10:43:14;;;;;;;10.23;2.30;;;;;;;;;;5066613;28;20123;-68
2021/12/29 10:45:42;;;;;;;7.75;1.75;;;;;;;;;;5072151;28;20237;-67
2021/12/29 10:48:16;;;;;;;13.68;1.92;;;;;;;;;;5071966;28;20032;-67
2021/12/29 10:50:53;;;;;;;7.47;1.70;;;;;;;;;;5089411;28;20044;-68
2021/12/29 10:53:22;;;;;;;6.68;1.80;;;;;;;;;;5071973;28;20154;-68
2021/12/29 10:55:47;;;;;;;7.78;1.95;;;;;;;;;;5072024;28;20028;-68
2021/12/29 10:58:14;;;;;;;5.47;1.63;;;;;;;;;;5090105;28;20084;-67
2021/12/29 11:00:41;;;;;;;7.05;2.00;;;;;;;;;;5086969;28;20032;-68
2021/12/29 11:03:08;;;;;;;8.88;1.75;;;;;;;;;;5087927;28;20038;-67
2021/12/29 11:05:39;;;;;;;8.25;1.90;;;;;;;;;;5070541;28;20189;-67
2021/12/29 11:08:05;;;;;;;9.00;1.65;;;;;;;;;;5071089;28;20086;-66
2021/12/29 11:10:30;;;;;;;11.00;2.08;;;;;;;;;;5087865;28;20047;-67
2021/12/29 11:12:56;;;;;;;4.85;1.50;;;;;;;;;;5087795;28;20491;-67
2021/12/29 11:15:23;;;;;;;6.72;1.98;;;;;;;;;;5087643;28;20036;-66
2021/12/29 11:17:49;;;;;;;8.50;1.92;;;;;;;;;;5069314;28;20032;-67
2021/12/29 11:20:19;;;;;;;7.93;2.00;;;;;;;;;;5087840;28;20063;-67
2021/12/29 11:22:45;;;;;;;6.88;1.98;;;;;;;;;;5069400;28;20402;-67
2021/12/29 11:25:11;;;;;;;5.43;1.70;;;;;;;;;;5088784;28;20032;-66
2021/12/29 11:27:37;;;;;;;7.15;2.10;;;;;;;;;;5089516;28;20051;-67
2021/12/29 11:30:05;;;;;;;8.73;2.00;;;;;;;;;;5089658;28;20434;-66
2021/12/29 11:32:36;;;;;;;8.52;1.67;;;;;;;;;;5071327;28;20035;-67
2021/12/29 11:35:04;;;;;;;8.15;1.90;;;;;;;;;;5089095;28;20080;-66
2021/12/29 11:37:30;;;;;;;7.75;1.67;;;;;;;;;;5089774;28;20038;-66
2021/12/29 11:39:55;;;;;;;6.07;1.48;;;;;;;;;;5089119;28;20028;-66
2021/12/29 11:42:21;;;;;;;5.43;1.60;;;;;;;;;;5087853;28;20028;-67
2021/12/29 11:44:46;;;;;;;6.78;1.85;;;;;;;;;;5082498;28;20475;-66
2021/12/29 11:47:13;;;;;;;7.03;1.58;;;;;;;;;;5083008;28;20024;-67
2021/12/29 11:49:38;;;;;;;6.13;2.22;;;;;;;;;;5081899;28;20035;-67
2021/12/29 11:52:11;;;;;;;6.45;2.05;;;;;;;;;;5087732;28;20463;-67
2021/12/29 11:54:46;;;;;;;6.43;2.25;;;;;;;;;;5070177;28;20407;-67
2021/12/29 11:57:14;;;;;;;8.85;1.88;;;;;;;;;;5083242;28;20061;-66
2021/12/29 11:59:39;;;;;;;5.28;1.55;;;;;;;;;;5087711;28;20023;-66
2021/12/29 12:02:05;;;;;;;7.40;2.20;;;;;;;;;;5087804;28;20046;-66
2021/12/29 12:04:31;;;;;;;5.63;2.33;;;;;;;;;;5050377;28;20029;-66
2021/12/29 12:07:04;;;;;;;6.82;2.25;;;;;;;;;;5082213;28;20016;-66
2021/12/29 12:09:42;;;;;;;5.22;2.00;;;;;;;;;;5069631;28;20036;-65
2021/12/29 12:12:08;;;;;;;7.88;2.50;;;;;;;;;;5087265;28;20035;-66
2021/12/29 12:14:36;;;;;;;5.75;2.25;;;;;;;;;;5088038;28;20032;-66
2021/12/29 12:17:12;;;;;;;7.25;2.10;;;;;;;;;;5070935;28;20044;-65
2021/12/29 12:19:38;;;;;;;7.10;1.90;;;;;;;;;;5049981;28;20043;-67
2021/12/29 12:22:05;;;;;;;10.25;2.40;;;;;;;;;;5067665;28;20122;-65
2021/12/29 12:24:32;;;;;;;7.88;2.65;;;;;;;;;;5049798;28;20024;-66
2021/12/29 12:27:00;;;;;;;9.88;1.95;;;;;;;;;;5069583;28;20024;-67
2021/12/29 12:29:30;;;;;;;7.95;2.30;;;;;;;;;;5049674;28;20111;-65
2021/12/29 12:32:00;;;;;;;13.27;2.97;;;;;;;;;;5086158;28;20509;-65
2021/12/29 12:34:26;;;;;;;9.15;2.45;;;;;;;;;;5070207;28;20093;-66
2021/12/29 12:36:51;;;;;;;8.60;2.45;;;;;;;;;;5088518;28;20430;-64
2021/12/29 12:39:18;;;;;;;8.65;2.45;;;;;;;;;;5070483;28;20043;-66
2021/12/29 12:41:45;;;;;;;12.63;2.42;;;;;;;;;;5070299;28;20047;-64
2021/12/29 12:44:11;;;;;;;11.40;2.00;;;;;;;;;;5088540;28;20380;-64
2021/12/29 12:46:38;;;;;;;11.23;2.15;;;;;;;;;;5088102;28;20030;-68
2021/12/29 12:49:14;;;;;;;10.75;2.50;;;;;;;;;;5070207;28;20055;-67
2021/12/29 12:51:40;;;;;;;8.13;2.35;;;;;;;;;;5068819;28;20029;-66
2021/12/29 12:54:21;;;;;;;11.63;2.70;;;;;;;;;;5057959;28;20081;-67
2021/12/29 12:56:47;;;;;;;6.18;1.90;;;;;;;;;;5044655;28;20118;-67
2021/12/29 12:59:14;;;;;;;11.80;2.58;;;;;;;;;;5084838;28;20435;-67
2021/12/29 13:01:45;;;;;;;8.25;2.25;;;;;;;;;;5087920;28;20630;-66
2021/12/29 13:04:13;;;;;;;6.32;1.80;;;;;;;;;;5051209;28;20048;-68
2021/12/29 13:06:39;;;;;;;8.98;2.70;;;;;;;;;;5084049;28;20058;-66
2021/12/29 13:09:06;;;;;;;12.82;1.90;;;;;;;;;;5090295;28;20072;-66
2021/12/29 13:11:33;;;;;;;12.07;3.08;;;;;;;;;;5068361;28;20094;-64
2021/12/29 13:14:00;;;;;;;8.88;2.80;;;;;;;;;;5052817;28;20044;-66
2021/12/29 13:16:26;;;;;;;10.05;2.22;;;;;;;;;;5069612;28;20027;-64
2021/12/29 13:18:52;;;;;;;8.20;2.33;;;;;;;;;;5072684;28;20875;-65
2021/12/29 13:21:21;;;;;;;11.50;2.28;;;;;;;;;;5069459;28;20054;-66
2021/12/29 13:23:47;;;;;;;9.23;2.47;;;;;;;;;;5036458;28;20476;-64
2021/12/29 13:26:13;;;;;;;9.77;2.75;;;;;;;;;;5036552;28;20386;-64
2021/12/29 13:28:38;;;;;;;7.50;1.90;;;;;;;;;;5070567;28;20115;-64
2021/12/29 13:31:06;;;;;;;14.05;2.63;;;;;;;;;;5055703;28;20028;-66
2021/12/29 13:33:32;;;;;;;10.45;2.63;;;;;;;;;;5056219;28;20452;-66
2021/12/29 13:35:59;;;;;;;8.13;1.95;;;;;;;;;;5073357;28;20043;-65
2021/12/29 13:38:25;;;;;;;11.05;3.22;;;;;;;;;;5090435;28;20031;-65
2021/12/29 13:40:52;;;;;;;10.95;2.80;;;;;;;;;;5090091;28;20028;-65
2021/12/29 13:43:18;;;;;;;14.27;3.17;;;;;;;;;;5073254;28;20085;-66
2021/12/29 13:45:47;;;;;;;9.73;3.03;;;;;;;;;;5056891;28;20036;-64
2021/12/29 13:48:15;;;;;;;19.50;3.50;;;;;;;;;;5056325;28;20036;-64
2021/12/29 13:50:41;;;;;;;14.50;2.83;;;;;;;;;;5055412;28;20028;-65
2021/12/29 13:53:08;;;;;;;12.55;3.05;;;;;;;;;;5089919;28;20128;-66
2021/12/29 13:55:36;;;;;;;10.18;2.70;;;;;;;;;;5071101;28;20031;-66
2021/12/29 13:58:02;;;;;;;14.63;2.83;;;;;;;;;;5088729;28;20089;-66
2021/12/29 14:00:28;;;;;;;8.27;2.33;;;;;;;;;;5071775;28;20024;-66
2021/12/29 14:02:53;;;;;;;11.40;3.20;;;;;;;;;;5088845;28;20084;-68
2021/12/29 14:05:19;;;;;;;10.20;2.22;;;;;;;;;;5090477;28;20347;-66
2021/12/29 14:07:44;;;;;;;13.50;2.50;;;;;;;;;;5089449;28;20036;-65
2021/12/29 14:10:11;;;;;;;11.82;2.55;;;;;;;;;;5072107;28;20038;-65
2021/12/29 14:12:37;;;;;;;8.48;1.50;;;;;;;;;;5054484;28;20085;-67
2021/12/29 14:15:04;;;;;;;16.08;2.60;;;;;;;;;;5067970;28;20047;-65
2021/12/29 14:17:37;;;;;;;10.65;2.13;;;;;;;;;;5072155;28;20040;-66
2021/12/29 14:20:09;;;;;;;10.60;2.42;;;;;;;;;;5090210;28;20495;-65
2021/12/29 14:22:35;;;;;;;9.93;2.05;;;;;;;;;;5062980;28;20075;-65
2021/12/29 14:25:07;;;;;;;14.52;2.90;;;;;;;;;;5077084;28;20571;-65
2021/12/29 14:27:36;;;;;;;9.60;2.38;;;;;;;;;;5055728;28;20566;-67
2021/12/29 14:30:31;;;;;;;9.32;2.72;;;;;;;;;;5072097;28;20027;-66
2021/12/29 14:33:01;;;;;;;9.43;2.80;;;;;;;;;;5042440;28;20036;-66
2021/12/29 14:35:29;;;;;;;13.50;2.75;;;;;;;;;;5055153;28;20056;-66
2021/12/29 14:37:55;;;;;;;14.10;2.88;;;;;;;;;;5054989;28;20032;-65
2021/12/29 14:40:22;;;;;;;11.00;2.67;;;;;;;;;;5071551;28;20493;-65